createdAt,value
2023-01-23T00:00:18.047Z,24.60
2023-01-23T00:01:16.814Z,22.89
2023-01-23T00:02:16.304Z,22.79
2023-01-23T00:03:16.680Z,24.60
2023-01-23T00:04:16.775Z,25.29
2023-01-23T00:05:16.780Z,24
2023-01-23T00:06:16.077Z,25.39
2023-01-23T00:07:16.412Z,24.60
2023-01-23T00:08:16.668Z,24
2023-01-23T00:09:16.921Z,24.20
2023-01-23T00:10:16.416Z,24
2023-01-23T00:11:16.866Z,24.20
2023-01-23T00:12:16.252Z,23.89
2023-01-23T00:13:16.793Z,23.29
2023-01-23T00:14:16.441Z,24.39
2023-01-23T00:15:16.841Z,23.79
2023-01-23T00:16:16.148Z,25.89
2023-01-23T00:17:16.423Z,25
2023-01-23T00:18:16.612Z,27.70
2023-01-23T00:19:16.848Z,26.20
2023-01-23T00:20:17.730Z,25.79
2023-01-23T00:21:16.318Z,25
2023-01-23T00:22:17.163Z,25.29
2023-01-23T00:23:16.528Z,25.39
2023-01-23T00:24:16.864Z,24.29
2023-01-23T00:25:16.614Z,24.39
2023-01-23T00:26:17.761Z,23.29
2023-01-23T00:27:17.106Z,24.70
2023-01-23T00:28:16.530Z,25
2023-01-23T00:29:16.735Z,23.70
2023-01-23T00:30:17.137Z,25.10
2023-01-23T00:31:16.609Z,22.89
2023-01-23T00:32:16.497Z,23.89
2023-01-23T00:34:16.824Z,23
2023-01-23T00:35:16.625Z,23.89
2023-01-23T00:36:16.814Z,23.79
2023-01-23T00:37:16.828Z,23.70
2023-01-23T00:39:16.683Z,23.89
2023-01-23T00:40:17.248Z,24.29
2023-01-23T00:41:16.533Z,23.10
2023-01-23T00:42:16.633Z,23.29
2023-01-23T00:43:16.613Z,24.89
2023-01-23T00:44:16.872Z,24.20
2023-01-23T00:45:16.521Z,25
2023-01-23T00:46:16.906Z,24.10
2023-01-23T00:47:16.642Z,23.79
2023-01-23T00:48:16.767Z,23.20
2023-01-23T00:49:16.975Z,23.10
2023-01-23T00:50:17.017Z,23.5
2023-01-23T00:51:16.568Z,22.70
2023-01-23T00:52:16.749Z,22.20
2023-01-23T00:53:16.755Z,22.29
2023-01-23T00:54:17.119Z,24.10
2023-01-23T00:55:16.822Z,22.70
2023-01-23T00:57:16.300Z,23.5
2023-01-23T00:58:16.470Z,24.89
2023-01-23T00:59:16.532Z,22.89
2023-01-23T01:00:18.439Z,23
2023-01-23T01:01:19.077Z,23.5
2023-01-23T01:03:17.026Z,22.39
2023-01-23T01:04:16.519Z,22.10
2023-01-23T01:05:16.913Z,23.29
2023-01-23T01:06:16.678Z,22.5
2023-01-23T01:07:16.538Z,23.29
2023-01-23T01:08:16.989Z,22.29
2023-01-23T01:09:16.816Z,23.89
2023-01-23T01:10:17.428Z,22.29
2023-01-23T01:11:16.805Z,21
2023-01-23T01:12:16.668Z,22.29
2023-01-23T01:13:17.035Z,21.70
2023-01-23T01:14:16.840Z,22.39
2023-01-23T01:15:17.123Z,22.29
2023-01-23T01:17:17.410Z,21.39
2023-01-23T01:18:16.852Z,21.29
2023-01-23T01:19:16.623Z,22.29
2023-01-23T01:20:16.665Z,21.20
2023-01-23T01:21:16.623Z,21.89
2023-01-23T01:22:17.149Z,22.10
2023-01-23T01:23:16.753Z,22.70
2023-01-23T01:24:16.303Z,22.5
2023-01-23T01:25:17.103Z,22.79
2023-01-23T01:26:16.811Z,22.89
2023-01-23T01:27:17.142Z,23.70
2023-01-23T01:28:17.551Z,23.60
2023-01-23T01:29:16.580Z,24
2023-01-23T01:30:17.297Z,22.70
2023-01-23T01:31:17.001Z,23.60
2023-01-23T01:32:17.492Z,22.10
2023-01-23T01:33:17.600Z,22.79
2023-01-23T01:34:17.323Z,23.20
2023-01-23T01:35:17.015Z,22.39
2023-01-23T01:36:16.622Z,21.70
2023-01-23T01:37:16.865Z,22.5
2023-01-23T01:38:16.442Z,23
2023-01-23T01:39:16.665Z,21.5
2023-01-23T01:40:17.276Z,23.60
2023-01-23T01:41:16.891Z,21.20
2023-01-23T01:42:16.235Z,22.29
2023-01-23T01:43:16.619Z,21.10
2023-01-23T01:44:16.960Z,22.60
2023-01-23T01:45:16.449Z,21.89
2023-01-23T01:46:16.625Z,21.29
2023-01-23T01:47:16.851Z,20.20
2023-01-23T01:48:16.731Z,20.5
2023-01-23T01:49:16.842Z,20.89
2023-01-23T01:50:16.412Z,20.70
2023-01-23T01:51:16.997Z,20.60
2023-01-23T01:52:16.821Z,20.20
2023-01-23T01:53:16.978Z,19.79
2023-01-23T01:54:16.400Z,19.39
2023-01-23T01:55:16.845Z,20.5
2023-01-23T01:56:16.618Z,20
2023-01-23T01:57:16.768Z,20.60
2023-01-23T01:58:16.423Z,20.10
2023-01-23T01:59:16.875Z,20.29
2023-01-23T02:00:17.477Z,19.60
2023-01-23T02:02:17.266Z,19.70
2023-01-23T02:05:16.260Z,20.10
2023-01-23T02:06:16.651Z,20.60
2023-01-23T02:07:16.982Z,20.89
2023-01-23T02:08:16.770Z,22.20
2023-01-23T02:09:16.390Z,21.79
2023-01-23T02:10:17.611Z,21.10
2023-01-23T02:11:16.530Z,20.89
2023-01-23T02:12:16.357Z,22.39
2023-01-23T02:13:16.450Z,22
2023-01-23T02:14:16.879Z,21.20
2023-01-23T02:15:16.672Z,21.29
2023-01-23T02:16:16.436Z,22.29
2023-01-23T02:17:16.817Z,20.5
2023-01-23T02:18:16.745Z,20.60
2023-01-23T02:19:16.457Z,20.79
2023-01-23T02:20:17.577Z,21.89
2023-01-23T02:21:16.497Z,21.70
2023-01-23T02:22:16.750Z,21.79
2023-01-23T02:23:17.030Z,23.10
2023-01-23T02:24:16.441Z,22.20
2023-01-23T02:25:17.001Z,22.10
2023-01-23T02:26:16.448Z,21.70
2023-01-23T02:28:16.993Z,22.20
2023-01-23T02:29:16.731Z,21.20
2023-01-23T02:30:17.297Z,21.10
2023-01-23T02:31:17.276Z,21.60
2023-01-23T02:32:17.432Z,20.79
2023-01-23T02:33:16.899Z,20.5
2023-01-23T02:34:16.483Z,21.20
2023-01-23T02:35:16.942Z,20.29
2023-01-23T02:36:16.437Z,20.10
2023-01-23T02:37:16.573Z,20.29
2023-01-23T02:38:17.221Z,20.20
2023-01-23T02:39:15.315Z,20.5
2023-01-23T02:40:17.354Z,20.70
2023-01-23T02:41:16.868Z,20.89
2023-01-23T02:42:16.591Z,20.5
2023-01-23T02:43:17.114Z,21.60
2023-01-23T02:44:16.514Z,19.5
2023-01-23T02:45:16.838Z,20.60
2023-01-23T02:46:16.444Z,20.29
2023-01-23T02:47:16.840Z,21.60
2023-01-23T02:48:16.565Z,20.70
2023-01-23T02:49:17.007Z,20.89
2023-01-23T02:50:16.979Z,20.29
2023-01-23T02:51:16.622Z,19.70
2023-01-23T02:52:16.916Z,21.60
2023-01-23T02:53:16.608Z,20.20
2023-01-23T02:54:16.657Z,20.70
2023-01-23T02:55:17.126Z,19.5
2023-01-23T02:56:16.660Z,19
2023-01-23T02:57:16.912Z,19.70
2023-01-23T02:58:16.357Z,18.89
2023-01-23T02:59:16.838Z,19
2023-01-23T03:00:17.601Z,18.5
2023-01-23T03:01:17.201Z,19.39
2023-01-23T03:02:17.412Z,19.29
2023-01-23T03:03:16.569Z,18.89
2023-01-23T03:04:16.983Z,18.29
2023-01-23T03:05:16.761Z,19.29
2023-01-23T03:06:16.510Z,18.10
2023-01-23T03:07:16.960Z,18.89
2023-01-23T03:08:16.486Z,17.5
2023-01-23T03:09:16.999Z,18.89
2023-01-23T03:10:16.865Z,18.20
2023-01-23T03:11:16.900Z,17.89
2023-01-23T03:12:16.548Z,18.5
2023-01-23T03:13:17.010Z,18.10
2023-01-23T03:14:16.709Z,17.60
2023-01-23T03:15:16.822Z,17
2023-01-23T03:16:16.290Z,16.20
2023-01-23T03:17:17.015Z,17.39
2023-01-23T03:18:16.891Z,16.79
2023-01-23T03:19:16.436Z,16.89
2023-01-23T03:20:17.137Z,18.29
2023-01-23T03:21:16.745Z,17.79
2023-01-23T03:22:16.390Z,19.29
2023-01-23T03:23:16.799Z,19.39
2023-01-23T03:24:16.566Z,18.39
2023-01-23T03:26:17.033Z,19.20
2023-01-23T03:27:16.753Z,19.10
2023-01-23T03:28:16.651Z,19
2023-01-23T03:29:17.005Z,17.89
2023-01-23T03:30:16.969Z,17.20
2023-01-23T03:31:16.872Z,18.20
2023-01-23T03:32:17.062Z,17.79
2023-01-23T03:34:17.256Z,17.60
2023-01-23T03:35:17.166Z,17.10
2023-01-23T03:36:16.928Z,17.20
2023-01-23T03:37:16.681Z,17.39
2023-01-23T03:38:16.845Z,16.39
2023-01-23T03:39:16.948Z,17.10
2023-01-23T03:40:16.844Z,16.79
2023-01-23T03:42:16.416Z,17.60
2023-01-23T03:43:17.052Z,17.10
2023-01-23T03:44:16.538Z,16.60
2023-01-23T03:45:17.201Z,16.20
2023-01-23T03:46:16.905Z,16.60
2023-01-23T03:47:16.881Z,15.69
2023-01-23T03:48:16.935Z,16.89
2023-01-23T03:49:16.598Z,17.5
2023-01-23T03:50:17.652Z,16.5
2023-01-23T03:51:17.215Z,17.29
2023-01-23T03:52:16.800Z,16.70
2023-01-23T03:53:16.795Z,16.79
2023-01-23T03:54:16.666Z,17.5
2023-01-23T03:55:17.327Z,16
2023-01-23T03:56:16.811Z,16.39
2023-01-23T03:57:16.623Z,16.10
2023-01-23T03:58:17.030Z,15.39
2023-01-23T03:59:16.780Z,16.10
2023-01-23T04:00:17.711Z,15.60
2023-01-23T04:01:16.790Z,16
2023-01-23T04:02:16.806Z,16.79
2023-01-23T04:03:16.740Z,16.70
2023-01-23T04:04:16.999Z,17.10
2023-01-23T04:05:16.768Z,16.5
2023-01-23T04:06:17.105Z,16.39
2023-01-23T04:07:16.905Z,15.5
2023-01-23T04:08:16.492Z,16.20
2023-01-23T04:09:17.049Z,16.79
2023-01-23T04:10:17.244Z,16.60
2023-01-23T04:11:16.786Z,18.20
2023-01-23T04:12:16.548Z,18.29
2023-01-23T04:13:17.417Z,17.39
2023-01-23T04:14:17.227Z,16.60
2023-01-23T04:15:17.160Z,16.29
2023-01-23T04:16:17.133Z,17.5
2023-01-23T04:17:16.999Z,16.89
2023-01-23T04:18:16.632Z,16.70
2023-01-23T04:19:17.291Z,16
2023-01-23T04:20:16.971Z,16.10
2023-01-23T04:21:16.616Z,16
2023-01-23T04:22:17.400Z,16.29
2023-01-23T04:23:17.085Z,17.10
2023-01-23T04:24:16.809Z,16.39
2023-01-23T04:25:16.715Z,16
2023-01-23T04:26:17.079Z,16.39
2023-01-23T04:27:16.873Z,16
2023-01-23T04:28:16.790Z,16.20
2023-01-23T04:29:16.592Z,15.69
2023-01-23T04:30:17.702Z,16.39
2023-01-23T04:31:16.777Z,16.10
2023-01-23T04:32:16.754Z,16.60
2023-01-23T04:33:16.597Z,15.39
2023-01-23T04:35:16.996Z,16.5
2023-01-23T04:36:16.764Z,16.10
2023-01-23T04:37:17.210Z,16.29
2023-01-23T04:38:16.934Z,15.89
2023-01-23T04:39:16.849Z,15.60
2023-01-23T04:40:16.814Z,16.29
2023-01-23T04:41:16.482Z,16.20
2023-01-23T04:42:17.014Z,17.60
2023-01-23T04:43:16.749Z,17.20
2023-01-23T04:44:16.651Z,17.29
2023-01-23T04:45:17.468Z,17.60
2023-01-23T04:46:16.850Z,16.70
2023-01-23T04:47:16.778Z,17.20
2023-01-23T04:48:16.442Z,17.60
2023-01-23T04:49:16.907Z,16.29
2023-01-23T04:50:16.584Z,17.29
2023-01-23T04:51:17.233Z,18.39
2023-01-23T04:52:17.118Z,17.29
2023-01-23T04:53:16.776Z,16.5
2023-01-23T04:54:16.712Z,16.60
2023-01-23T04:55:17.293Z,15.89
2023-01-23T04:56:17.090Z,16.79
2023-01-23T04:57:16.803Z,15.80
2023-01-23T05:00:18.775Z,15.69
2023-01-23T05:01:17.145Z,16.39
2023-01-23T05:02:17.020Z,15.89
2023-01-23T05:03:17.034Z,16.20
2023-01-23T05:04:16.903Z,15.60
2023-01-23T05:05:16.551Z,16.10
2023-01-23T05:06:17.089Z,16.39
2023-01-23T05:07:16.956Z,15.89
2023-01-23T05:08:16.830Z,15.60
2023-01-23T05:09:16.980Z,15.69
2023-01-23T05:11:16.507Z,15.60
2023-01-23T05:12:16.758Z,15.89
2023-01-23T05:13:17.439Z,16.10
2023-01-23T05:14:17.036Z,15.39
2023-01-23T05:15:16.996Z,15.89
2023-01-23T05:17:16.871Z,16.39
2023-01-23T05:18:16.662Z,15.80
2023-01-23T05:19:17.060Z,15.10
2023-01-23T05:20:17.176Z,16.39
2023-01-23T05:21:17.098Z,16.60
2023-01-23T05:22:16.901Z,15.69
2023-01-23T05:23:16.780Z,16.20
2023-01-23T05:24:16.623Z,16.29
2023-01-23T05:25:17.200Z,16.10
2023-01-23T05:26:16.765Z,16.70
2023-01-23T05:27:16.798Z,16.29
2023-01-23T05:28:16.812Z,16.60
2023-01-23T05:29:16.695Z,15.69
2023-01-23T05:30:17.676Z,16.5
2023-01-23T05:31:16.909Z,15.80
2023-01-23T05:32:16.738Z,15.60
2023-01-23T05:33:17.283Z,16.5
2023-01-23T05:34:17.044Z,16.39
2023-01-23T05:35:17.165Z,16.60
2023-01-23T05:36:18.619Z,15.80
2023-01-23T05:37:17.392Z,16.5
2023-01-23T05:38:16.995Z,15.69
2023-01-23T05:39:17.396Z,14.80
2023-01-23T05:40:17.883Z,15.69
2023-01-23T05:41:16.874Z,15.80
2023-01-23T05:42:16.835Z,16.60
2023-01-23T05:43:16.745Z,16.20
2023-01-23T05:44:16.701Z,16
2023-01-23T05:45:17.103Z,17.10
2023-01-23T05:46:16.821Z,15.69
2023-01-23T05:47:16.871Z,16.70
2023-01-23T05:48:16.789Z,15.5
2023-01-23T05:49:17.112Z,15.19
2023-01-23T05:50:17.257Z,15.39
2023-01-23T05:52:16.813Z,15.5
2023-01-23T05:54:17.080Z,15.39
2023-01-23T05:55:16.870Z,15.30
2023-01-23T05:56:16.641Z,15.69
2023-01-23T05:57:17.334Z,15.10
2023-01-23T05:58:17.145Z,16
2023-01-23T05:59:17.324Z,16.39
2023-01-23T06:00:18.587Z,16.89
2023-01-23T06:01:17.345Z,16.10
2023-01-23T06:02:17.245Z,16
2023-01-23T06:03:17.075Z,16.89
2023-01-23T06:04:16.908Z,16.79
2023-01-23T06:06:17.034Z,17.5
2023-01-23T06:08:16.779Z,17.60
2023-01-23T06:09:17.246Z,17.70
2023-01-23T06:10:17.128Z,17.5
2023-01-23T06:11:16.682Z,18.5
2023-01-23T06:12:17.006Z,16.89
2023-01-23T06:13:16.945Z,16.60
2023-01-23T06:15:17.349Z,17.89
2023-01-23T06:16:17.570Z,16.70
2023-01-23T06:17:17.479Z,16.29
2023-01-23T06:18:17.455Z,16.79
2023-01-23T06:20:16.944Z,16.70
2023-01-23T06:21:17.070Z,16.39
2023-01-23T06:22:17.146Z,17.20
2023-01-23T06:23:17.112Z,17.79
2023-01-23T06:24:17.061Z,17.20
2023-01-23T06:25:17.261Z,18.29
2023-01-23T06:26:16.471Z,17.60
2023-01-23T06:27:16.797Z,17.89
2023-01-23T06:28:16.779Z,17.70
2023-01-23T06:29:16.983Z,18.60
2023-01-23T06:30:17.932Z,18.39
2023-01-23T06:31:17.274Z,18.29
2023-01-23T06:32:17.190Z,17.89
2023-01-23T06:34:17.143Z,18.5
2023-01-23T06:35:17.040Z,18.10
2023-01-23T06:36:17.032Z,18.29
2023-01-23T06:37:17.030Z,17.5
2023-01-23T06:38:16.741Z,18.5
2023-01-23T06:39:16.916Z,17.79
2023-01-23T06:40:17.088Z,17.60
2023-01-23T06:41:19.739Z,17.79
2023-01-23T06:42:17.182Z,17.29
2023-01-23T06:43:17.357Z,17.10
2023-01-23T06:44:17.252Z,17.20
2023-01-23T06:45:17.455Z,17.29
2023-01-23T06:46:16.129Z,17.70
2023-01-23T06:47:17.124Z,16.60
2023-01-23T06:48:17.030Z,17.20
2023-01-23T06:49:15.502Z,16.29
2023-01-23T06:50:17.112Z,15.5
2023-01-23T06:51:17.503Z,16.29
2023-01-23T06:52:17.042Z,16.60
2023-01-23T06:53:17.021Z,16.79
2023-01-23T06:54:17.041Z,16.60
2023-01-23T06:55:17.316Z,16.79
2023-01-23T06:56:17.619Z,17.10
2023-01-23T06:57:17.055Z,16.20
2023-01-23T06:58:17.005Z,16.70
2023-01-23T06:59:17.382Z,16.29
2023-01-23T07:00:18.680Z,17.10
2023-01-23T07:01:16.627Z,15.80
2023-01-23T07:02:16.798Z,16.70
2023-01-23T07:03:17.130Z,17.89
2023-01-23T07:04:17.634Z,15.60
2023-01-23T07:05:17.142Z,17.20
2023-01-23T07:06:17.434Z,16.5
2023-01-23T07:07:17.442Z,15.69
2023-01-23T07:08:17.315Z,16.29
2023-01-23T07:09:17.358Z,16
2023-01-23T07:10:18.348Z,16.79
2023-01-23T07:11:17.350Z,16.89
2023-01-23T07:12:16.967Z,16.29
2023-01-23T07:14:17.141Z,16.20
2023-01-23T07:15:17.789Z,16.29
2023-01-23T07:16:17.093Z,16
2023-01-23T07:17:17.310Z,15.69
2023-01-23T07:18:17.379Z,16.89
2023-01-23T07:19:17.388Z,16.5
2023-01-23T07:20:18.454Z,16.20
2023-01-23T07:21:17.302Z,17.10
2023-01-23T07:22:17.198Z,16.89
2023-01-23T07:23:17.083Z,16.5
2023-01-23T07:24:17.119Z,16.60
2023-01-23T07:25:17.381Z,16.29
2023-01-23T07:26:17.387Z,16.39
2023-01-23T07:27:17.437Z,15.80
2023-01-23T07:28:17.392Z,16.10
2023-01-23T07:29:17.248Z,16.29
2023-01-23T07:30:18.074Z,16.5
2023-01-23T07:31:17.418Z,15.89
2023-01-23T07:32:17.169Z,16.10
2023-01-23T07:34:17.442Z,16
2023-01-23T07:35:17.284Z,15.89
2023-01-23T07:36:17.218Z,15.60
2023-01-23T07:37:17.259Z,15.19
2023-01-23T07:38:17.349Z,15.69
2023-01-23T07:39:17.207Z,16.20
2023-01-23T07:40:17.998Z,15.10
2023-01-23T07:41:17.231Z,15.89
2023-01-23T07:42:16.837Z,15.39
2023-01-23T07:43:17.110Z,16.89
2023-01-23T07:44:16.975Z,16
2023-01-23T07:45:17.357Z,16.79
2023-01-23T07:46:17.560Z,15.69
2023-01-23T07:47:17.033Z,16.29
2023-01-23T07:48:17.318Z,15.69
2023-01-23T07:49:16.493Z,15.39
2023-01-23T07:50:17.170Z,16.10
2023-01-23T07:51:17.577Z,15.69
2023-01-23T07:52:16.804Z,15.60
2023-01-23T07:53:16.993Z,15.5
2023-01-23T07:54:16.971Z,15
2023-01-23T07:55:17.372Z,16.20
2023-01-23T07:56:17.321Z,15.89
2023-01-23T07:57:16.638Z,15
2023-01-23T07:58:16.632Z,15.10
2023-01-23T07:59:17.713Z,14.30
2023-01-23T08:00:18.835Z,13.39
2023-01-23T08:01:17.023Z,14
2023-01-23T08:02:17.039Z,13.69
2023-01-23T08:03:17.506Z,13.80
2023-01-23T08:04:17.134Z,15.5
2023-01-23T08:05:17.653Z,14.30
2023-01-23T08:06:17.184Z,13.89
2023-01-23T08:08:17.146Z,16.10
2023-01-23T08:09:17.275Z,13.69
2023-01-23T08:10:17.397Z,14.60
2023-01-23T08:11:16.492Z,14.5
2023-01-23T08:12:16.879Z,13.60
2023-01-23T08:13:16.950Z,13.5
2023-01-23T08:14:17.090Z,13.30
2023-01-23T08:16:17.372Z,14.39
2023-01-23T08:17:17.144Z,15
2023-01-23T08:18:17.323Z,14.69
2023-01-23T08:19:17.413Z,15.30
2023-01-23T08:20:17.848Z,14.19
2023-01-23T08:21:17.187Z,14
2023-01-23T08:22:17.443Z,14.60
2023-01-23T08:23:17.164Z,13.89
2023-01-23T08:24:17.312Z,15.10
2023-01-23T08:25:17.387Z,14.39
2023-01-23T08:26:17.447Z,14.69
2023-01-23T08:27:17.431Z,16
2023-01-23T08:28:16.523Z,15.10
2023-01-23T08:29:16.565Z,14.89
2023-01-23T08:30:17.197Z,14.60
2023-01-23T08:31:17.297Z,14.39
2023-01-23T08:32:17.352Z,14.30
2023-01-23T08:33:16.650Z,14.69
2023-01-23T08:36:17.363Z,15.5
2023-01-23T08:38:17.254Z,16.10
2023-01-23T08:39:17.512Z,15.19
2023-01-23T08:40:17.368Z,15.60
2023-01-23T08:41:17.396Z,15.80
2023-01-23T08:43:17.209Z,16
2023-01-23T08:44:17.155Z,15.89
2023-01-23T08:45:17.365Z,15.30
2023-01-23T08:46:17.677Z,15.89
2023-01-23T08:47:17.162Z,16.29
2023-01-23T08:48:17.345Z,15.5
2023-01-23T08:49:17.291Z,16.10
2023-01-23T08:50:18.311Z,15.19
2023-01-23T08:51:17.159Z,15.39
2023-01-23T08:52:17.372Z,15.80
2023-01-23T08:53:17.330Z,14.80
2023-01-23T08:54:17.317Z,14.69
2023-01-23T08:55:17.674Z,15.60
2023-01-23T08:56:17.184Z,16.20
2023-01-23T08:57:17.632Z,15.10
2023-01-23T08:58:17.100Z,15.30
2023-01-23T08:59:16.829Z,15.60
2023-01-23T09:00:18.239Z,14.89
2023-01-23T09:02:16.906Z,15
2023-01-23T09:03:17.125Z,14.80
2023-01-23T09:04:17.496Z,15.60
2023-01-23T09:05:17.362Z,15
2023-01-23T09:06:17.386Z,14.80
2023-01-23T09:07:17.677Z,15.60
2023-01-23T09:08:16.873Z,14.80
2023-01-23T09:09:16.701Z,15.19
2023-01-23T09:10:16.858Z,15.69
2023-01-23T09:11:17.131Z,15
2023-01-23T09:12:17.131Z,15.10
2023-01-23T09:13:17.483Z,15.5
2023-01-23T09:14:17.517Z,15.80
2023-01-23T09:15:17.249Z,14.5
2023-01-23T09:16:17.149Z,14
2023-01-23T09:17:17.524Z,14.80
2023-01-23T09:18:16.972Z,14.39
2023-01-23T09:19:17.044Z,14.89
2023-01-23T09:20:17.748Z,15.5
2023-01-23T09:21:17.129Z,14.69
2023-01-23T09:22:17.144Z,14.30
2023-01-23T09:23:17.136Z,14.69
2023-01-23T09:24:17.460Z,14.80
2023-01-23T09:25:17.272Z,14.30
2023-01-23T09:26:19.749Z,14.60
2023-01-23T09:28:17.503Z,13.69
2023-01-23T09:29:16.958Z,13.5
2023-01-23T09:30:17.412Z,14.5
2023-01-23T09:31:17.108Z,14.39
2023-01-23T09:32:17.562Z,14.30
2023-01-23T09:34:17.557Z,13.80
2023-01-23T09:35:17.433Z,14.10
2023-01-23T09:36:16.654Z,13.39
2023-01-23T09:37:16.950Z,14.5
2023-01-23T09:38:16.811Z,13.80
2023-01-23T09:39:16.955Z,15
2023-01-23T09:40:17.686Z,14
2023-01-23T09:41:16.776Z,14.69
2023-01-23T09:42:31.025Z,14.39
2023-01-23T09:43:16.957Z,13.89
2023-01-23T09:44:17.034Z,14.39
2023-01-23T09:45:17.025Z,14.10
2023-01-23T09:47:16.870Z,14.39
2023-01-23T09:48:17.028Z,14.19
2023-01-23T09:49:17.293Z,14.89
2023-01-23T09:50:17.438Z,14.60
2023-01-23T09:51:17.386Z,14.5
2023-01-23T09:52:17.102Z,13.69
2023-01-23T09:53:17.245Z,15
2023-01-23T09:54:17.328Z,13.39
2023-01-23T09:55:17.499Z,13.89
2023-01-23T09:56:17.444Z,14.39
2023-01-23T09:57:17.128Z,14.19
2023-01-23T09:58:16.899Z,14
2023-01-23T09:59:16.503Z,13.39
2023-01-23T10:00:18.710Z,13.30
2023-01-23T10:01:17.586Z,13.5
2023-01-23T10:02:16.949Z,13.60
2023-01-23T10:03:17.341Z,13.80
2023-01-23T10:04:17.368Z,13.19
2023-01-23T10:05:17.563Z,12.80
2023-01-23T10:06:16.878Z,13.69
2023-01-23T10:07:19.102Z,13.5
2023-01-23T10:08:17.350Z,13.60
2023-01-23T10:09:17.699Z,13.89
2023-01-23T10:10:17.461Z,13.19
2023-01-23T10:11:16.890Z,12.80
2023-01-23T10:12:17.421Z,13.39
2023-01-23T10:13:17.531Z,13.60
2023-01-23T10:14:17.969Z,13.5
2023-01-23T10:15:18.037Z,13.89
2023-01-23T10:16:17.623Z,13.39
2023-01-23T10:17:17.372Z,13.60
2023-01-23T10:18:17.436Z,13.69
2023-01-23T10:19:17.723Z,13.30
2023-01-23T10:20:16.981Z,13
2023-01-23T10:21:17.194Z,14.30
2023-01-23T10:22:23.033Z,14
2023-01-23T10:23:17.327Z,13
2023-01-23T10:24:17.411Z,13.30
2023-01-23T10:25:17.641Z,12.80
2023-01-23T10:26:17.144Z,12.39
2023-01-23T10:28:17.517Z,12.5
2023-01-23T10:29:17.018Z,12.69
2023-01-23T10:30:17.408Z,13
2023-01-23T10:31:17.116Z,12.89
2023-01-23T10:32:17.516Z,12.69
2023-01-23T10:33:17.773Z,13.19
2023-01-23T10:34:16.659Z,13.10
2023-01-23T10:35:17.404Z,12.39
2023-01-23T10:36:23.499Z,13.39
2023-01-23T10:37:16.924Z,13.30
2023-01-23T10:39:17.112Z,12.80
2023-01-23T10:41:18.055Z,13.30
2023-01-23T10:42:17.805Z,12.69
2023-01-23T10:43:17.421Z,13.39
2023-01-23T10:44:17.490Z,13.30
2023-01-23T10:45:17.259Z,13.19
2023-01-23T10:46:17.243Z,12.80
2023-01-23T10:47:17.660Z,14.10
2023-01-23T10:48:17.727Z,13.39
2023-01-23T10:49:17.251Z,13.10
2023-01-23T10:50:17.493Z,12.60
2023-01-23T10:51:17.173Z,13.10
2023-01-23T10:52:16.924Z,13.39
2023-01-23T10:53:17.259Z,13
2023-01-23T10:54:30.324Z,13.39
2023-01-23T10:55:17.555Z,12.10
2023-01-23T10:56:17.766Z,13
2023-01-23T10:57:17.863Z,13.30
2023-01-23T10:58:17.902Z,13.80
2023-01-23T10:59:17.624Z,13.5
2023-01-23T11:00:18.176Z,13.60
2023-01-23T11:01:18.636Z,14
2023-01-23T11:02:18.010Z,13.19
2023-01-23T11:03:17.450Z,13.5
2023-01-23T11:04:16.765Z,13
2023-01-23T11:05:17.499Z,13.30
2023-01-23T11:06:17.226Z,12.89
2023-01-23T11:07:17.506Z,13
2023-01-23T11:09:17.447Z,12
2023-01-23T11:10:17.265Z,12.30
2023-01-23T11:12:17.386Z,12.80
2023-01-23T11:13:17.738Z,13.30
2023-01-23T11:14:16.988Z,12.19
2023-01-23T11:15:18.265Z,12.39
2023-01-23T11:17:18.167Z,12.69
2023-01-23T11:18:18.289Z,13
2023-01-23T11:19:17.746Z,13.60
2023-01-23T11:20:17.984Z,12.60
2023-01-23T11:21:17.211Z,12
2023-01-23T11:22:17.201Z,12.5
2023-01-23T11:23:18.010Z,13.39
2023-01-23T11:24:18.892Z,12.39
2023-01-23T11:25:18.281Z,12
2023-01-23T11:26:18.021Z,12.60
2023-01-23T11:27:17.919Z,12.10
2023-01-23T11:28:17.815Z,12.19
2023-01-23T11:29:17.965Z,12.5
2023-01-23T11:30:18.023Z,11.89
2023-01-23T11:31:18.187Z,13
2023-01-23T11:32:18.108Z,12.39
2023-01-23T11:33:17.894Z,12.19
2023-01-23T11:34:18.308Z,12.30
2023-01-23T11:35:18.206Z,11.69
2023-01-23T11:36:17.638Z,12.30
2023-01-23T11:37:17.547Z,12
2023-01-23T11:38:19.770Z,11.89
2023-01-23T11:40:17.940Z,11.39
2023-01-23T11:41:17.461Z,11.69
2023-01-23T11:42:17.013Z,11.19
2023-01-23T11:43:17.598Z,11.5
2023-01-23T11:44:18.622Z,11.80
2023-01-23T11:45:17.329Z,11
2023-01-23T11:46:17.518Z,10.89
2023-01-23T11:47:17.092Z,12
2023-01-23T11:48:17.400Z,10.80
2023-01-23T11:49:17.270Z,11.10
2023-01-23T11:50:17.749Z,11.69
2023-01-23T11:51:17.289Z,11.10
2023-01-23T11:52:17.266Z,11.5
2023-01-23T11:53:17.412Z,11.30
2023-01-23T11:54:17.625Z,10.89
2023-01-23T11:55:17.456Z,11
2023-01-23T11:56:17.281Z,10.89
2023-01-23T11:57:17.653Z,11
2023-01-23T11:58:17.679Z,10.39
2023-01-23T11:59:17.440Z,10.5
2023-01-23T12:00:18.762Z,10.89
2023-01-23T12:01:17.376Z,11.60
2023-01-23T12:02:17.365Z,11.30
2023-01-23T12:03:17.428Z,10.5
2023-01-23T12:04:17.296Z,10.30
2023-01-23T12:05:17.237Z,10.39
2023-01-23T12:06:20.331Z,10.19
2023-01-23T12:07:17.250Z,10.5
2023-01-23T12:08:17.275Z,10.10
2023-01-23T12:10:17.741Z,9.899
2023-01-23T12:11:17.368Z,10
2023-01-23T12:12:17.560Z,10.5
2023-01-23T12:13:17.803Z,9.899
2023-01-23T12:14:17.436Z,9.199
2023-01-23T12:17:17.356Z,9
2023-01-23T12:18:17.048Z,9.199
2023-01-23T12:19:17.455Z,9.5
2023-01-23T12:20:17.152Z,8.699
2023-01-23T12:21:17.484Z,9.800
2023-01-23T12:22:17.125Z,9.5
2023-01-23T12:23:18.122Z,9.399
2023-01-23T12:24:17.841Z,9.100
2023-01-23T12:27:17.429Z,9.5
2023-01-23T12:28:18.069Z,9.100
2023-01-23T12:29:17.156Z,10.19
2023-01-23T12:30:17.646Z,10.30
2023-01-23T12:33:17.680Z,10.69
2023-01-23T12:34:17.099Z,10
2023-01-23T12:35:17.504Z,9.5
2023-01-23T12:36:17.461Z,9.199
2023-01-23T12:37:30.037Z,9.699
2023-01-23T12:39:17.660Z,9.5
2023-01-23T12:42:17.458Z,9.199
2023-01-23T12:43:17.516Z,10.39
2023-01-23T12:44:17.381Z,10
2023-01-23T12:45:18.017Z,9.899
2023-01-23T12:46:17.287Z,10.39
2023-01-23T12:47:17.210Z,9.899
2023-01-23T12:48:17.412Z,10.60
2023-01-23T12:49:17.328Z,10.30
2023-01-23T12:50:17.142Z,9.800
2023-01-23T12:51:17.477Z,10.10
2023-01-23T12:52:17.175Z,9.699
2023-01-23T12:53:17.383Z,9.600
2023-01-23T12:54:16.954Z,9.399
2023-01-23T12:55:17.326Z,9.600
2023-01-23T12:56:17.259Z,9.399
2023-01-23T12:57:17.857Z,9.300
2023-01-23T12:58:17.688Z,9.199
2023-01-23T12:59:17.453Z,9.699
2023-01-23T13:00:17.948Z,9.5
2023-01-23T13:01:17.859Z,8.800
2023-01-23T13:02:17.651Z,9.100
2023-01-23T13:03:20.010Z,9.399
2023-01-23T13:04:17.506Z,8.699
2023-01-23T13:05:17.485Z,9.199
2023-01-23T13:06:17.357Z,9.100
2023-01-23T13:07:17.573Z,9
2023-01-23T13:08:19.005Z,8.699
2023-01-23T13:09:18.741Z,9.199
2023-01-23T13:10:17.664Z,9.399
2023-01-23T13:11:18.860Z,9.100
2023-01-23T13:12:17.376Z,9.600
2023-01-23T13:13:17.390Z,8.800
2023-01-23T13:14:17.628Z,8.399
2023-01-23T13:15:20.656Z,8.199
2023-01-23T13:16:16.813Z,8.300
2023-01-23T13:17:16.887Z,7.5
2023-01-23T13:18:16.735Z,7.300
2023-01-23T13:19:16.849Z,7.599
2023-01-23T13:20:16.940Z,7.099
2023-01-23T13:21:16.832Z,7
2023-01-23T13:22:26.974Z,7.099
2023-01-23T13:23:16.852Z,6.699
2023-01-23T13:24:16.753Z,7
2023-01-23T13:25:17.590Z,6.5
2023-01-23T13:26:17.156Z,6.699
2023-01-23T13:27:17.154Z,7.699
2023-01-23T13:28:19.568Z,7
2023-01-23T13:30:17.220Z,7.400
2023-01-23T13:31:17.513Z,7.099
2023-01-23T13:33:17.089Z,6.599
2023-01-23T13:34:17.236Z,6.699
2023-01-23T13:36:16.843Z,6.400
2023-01-23T13:37:17.300Z,6.699
2023-01-23T13:38:16.913Z,5.900
2023-01-23T13:39:17.024Z,6.5
2023-01-23T13:40:17.333Z,6.300
2023-01-23T13:41:17.469Z,6.5
2023-01-23T13:45:17.214Z,6.300
2023-01-23T13:46:18.323Z,6.400
2023-01-23T14:20:18.203Z,6.199
2023-01-23T14:21:18.681Z,6.400
2023-01-23T14:22:17.026Z,6.599
2023-01-23T14:23:17.270Z,7
2023-01-23T14:24:17.458Z,6.800
2023-01-23T14:25:17.592Z,7.400
2023-01-23T14:26:16.793Z,7.300
2023-01-23T14:27:21.179Z,7.699
2023-01-23T14:28:17.179Z,7.400
2023-01-23T14:29:16.854Z,7.199
2023-01-23T14:30:17.579Z,7.300
2023-01-23T14:32:17.349Z,7.199
2023-01-23T14:33:17.367Z,6.599
2023-01-23T14:34:18.852Z,7.099
2023-01-23T14:35:16.758Z,7.400